Flight Track Log - Related Links

Times and Time Zones

All times are in EDT time to prevent confusion due to time zone crossing. See the SWA3608 flight status page for this flight to view local times or setup timezone preferences in your user account.

Time Position Orientation Groundspeed Altitude Reporting Facility
EDT Latitude Longitude Course Direction KTS MPH feet Rate Location/Type
Fri 05:59:54 PM 32.8667 -96.8667 320° Northwest 147 169 1,600  Level Dallas / Fort Worth TRACON
Fri 06:00:48 PM 32.9000 -96.9000 320° Northwest 218 251 3,300 2,191 Climbing Dallas / Fort Worth TRACON
Fri 06:01:49 PM 32.9000 -96.9833 270° West 263 303 5,800 2,762 Climbing Dallas / Fort Worth TRACON
Fri 06:02:54 PM 32.8333 -97.0333 212° Southwest 289 333 9,100 2,795 Climbing Dallas / Fort Worth TRACON
Fri 06:04:45 PM 32.6700 -97.0408 182° South 323 372 14,000 2,667 Climbing Fort Worth Center
Fri 06:05:45 PM 32.5697 -97.0461 183° South 354 407 16,700 2,850 Climbing Fort Worth Center
Fri 06:06:45 PM 32.4717 -97.0489 181° South 364 419 19,700 2,400 Climbing Fort Worth Center
Fri 06:07:45 PM 32.3653 -97.0567 184° South 364 419 21,500 1,900 Climbing Fort Worth Center
Fri 06:08:45 PM 32.2567 -97.0619 182° South 387 445 23,500 1,550 Climbing Fort Worth Center
Fri 06:09:45 PM 32.1564 -97.0797 189° South 394 453 24,600 1,400 Climbing Fort Worth Center
Fri 06:10:45 PM 32.0439 -97.1069 192° South 407 468 26,300 1,750 Climbing Fort Worth Center
Fri 06:11:45 PM 31.9167 -97.1417 193° South 420 483 28,100 1,550 Climbing Fort Worth Center
Fri 06:12:45 PM 31.8019 -97.1714 192° South 420 483 29,400 1,000 Climbing Fort Worth Center
Fri 06:13:45 PM 31.6828 -97.2008 192° South 440 506 30,100 294 Climbing Fort Worth Center
Fri 06:15:08 PM 31.5128 -97.2444 192° South 462 532 30,100  Level Houston Center
Fri 06:16:10 PM 31.3864 -97.2756 192° South 461 531 30,100  Level Houston Center
Fri 06:17:12 PM 31.2603 -97.3081 192° South 461 531 30,100  Level Houston Center
Fri 06:18:14 PM 31.1364 -97.3411 193° South 457 526 30,100  Level Houston Center
Fri 06:19:16 PM 30.9917 -97.3772 192° South 458 527 30,100  Level Houston Center
Fri 06:20:18 PM 30.8686 -97.4086 192° South 459 528 30,100  Level Houston Center
Fri 06:21:20 PM 30.7450 -97.4386 192° South 456 525 30,100  Level Houston Center
Fri 06:22:23 PM 30.6219 -97.4694 192° South 451 519 30,100 -864 Level Houston Center
Fri 06:23:25 PM 30.4983 -97.5008 192° South 450 518 28,300 -2,323 Descending Houston Center
Fri 06:24:27 PM 30.3617 -97.5400 194° South 432 497 25,300 -2,613 Descending Houston Center
Fri 06:25:29 PM 30.2672 -97.6069 211° Southwest 394 453 22,900 -2,274 Descending Houston Center
Fri 06:26:31 PM 30.1781 -97.6694 211° Southwest 374 430 20,600 -2,177 Descending Houston Center
Fri 06:27:33 PM 30.0944 -97.7267 211° Southwest 354 407 18,400 -2,366 Descending Houston Center
Fri 06:27:42 PM 30.0761 -97.7400 212° Southwest 342 394 17,800 -1,452 Descending Houston Center
Fri 06:28:35 PM 30.0092 -97.7850 210° Southwest 328 377 16,900 -1,475 Descending Houston Center
Fri 06:28:43 PM 29.9994 -97.7933 217° Southwest 319 367 16,300 -3,194 Descending Houston Center
Fri 06:29:37 PM 29.9278 -97.8408 210° Southwest 318 366 13,600 -2,852 Descending Houston Center
Fri 06:29:44 PM 29.9222 -97.8442 207° Southwest 316 364 13,400 -2,206 Descending Houston Center
Fri 06:30:45 PM 29.8711 -97.9231 233° Southwest 304 350 11,100 -1,770 Descending Houston Center
Fri 06:31:46 PM 29.8367 -98.0044 244° Southwest 281 323 9,800 -1,252 Descending Houston Center
Fri 06:32:40 PM 29.8075 -98.0731 244° Southwest 260 299 8,700 -1,241 Descending Houston Center
Fri 06:32:44 PM 29.8053 -98.0803 250° West 265 305 8,600 -986 Descending Houston Center
Fri 06:33:53 PM 29.7681 -98.1672 244° Southwest 262 302 7,500 -1,016 Descending Houston Center
Fri 06:34:48 PM 29.7392 -98.2372 245° Southwest 262 302 6,500 -984 Descending Houston Center
Fri 06:34:54 PM 29.7375 -98.2431 252° West 262 302 6,500 -492 Level Houston Center
Fri 06:35:49 PM 29.7039 -98.3097 240° Southwest 260 299 6,000 -536 Descending Houston Center
Fri 06:35:50 PM 29.7056 -98.3103 344° North 260 299 6,000 -436 Level Houston Center
Fri 06:36:44 PM 29.6411 -98.3367 200° South 271 312 5,600 -581 Descending Houston Center
Fri 06:36:52 PM 29.6306 -98.3361 177° South 266 306 5,400 -1,400 Descending Houston Center
Fri 06:37:44 PM 29.5678 -98.3383 182° South 264 304 4,200 -1,258 Descending Houston Center
Fri 06:37:54 PM 29.5567 -98.3389 182° South 262 302 4,100 -885 Descending Houston Center
Fri 06:38:45 PM 29.4967 -98.3397 181° South 247 284 3,300 -774 Descending Houston Center
Fri 06:38:56 PM 29.4881 -98.3417 191° South 248 285 3,300 -716 Level Houston Center
Fri 06:39:52 PM 29.4575 -98.3708 220° Southwest 170 196 2,500 -871 Descending Houston Center
Fri 06:39:58 PM 29.4597 -98.3753 300° West 183 211 2,400 -393 Descending Houston Center
Fri 06:40:53 PM 29.4839 -98.4086 310° West 132 152 2,100 -387 Descending Houston Center
Fri 06:41:00 PM 29.4869 -98.4125 312° West 155 178 2,000 -689 Descending Houston Center
Fri 06:41:54 PM 29.5056 -98.4372 311° West 111 128 1,400 -667 Descending Houston Center
Fri 06:42:03 PM 29.5100 -98.4422 316° Northwest 121 139 1,300 -507 Descending Houston Center
Fri 06:43:05 PM 29.5339 -98.4725 312° West 122 140 800 -484 Descending Houston Center

Login

Don't have an account? Register now (free) for customized features, flight alerts, and more!